sensor_id;sensor_type;location;lat;lon;timestamp;pressure;altitude;pressure_sealevel;temperature;humidity
10510;BME280;5303;53.266;10.410;2023-05-09T00:01:10;101875.53;;;11.32;47.29
10510;BME280;5303;53.266;10.410;2023-05-09T00:03:37;101868.47;;;11.29;47.27
10510;BME280;5303;53.266;10.410;2023-05-09T00:06:02;101873.75;;;11.31;47.62
10510;BME280;5303;53.266;10.410;2023-05-09T00:08:28;101869.38;;;11.31;46.88
10510;BME280;5303;53.266;10.410;2023-05-09T00:10:53;101871.03;;;11.23;47.71
10510;BME280;5303;53.266;10.410;2023-05-09T00:13:19;101872.84;;;11.24;47.62
10510;BME280;5303;53.266;10.410;2023-05-09T00:15:44;101866.63;;;11.22;47.58
10510;BME280;5303;53.266;10.410;2023-05-09T00:18:11;101864.75;;;11.13;48.68
10510;BME280;5303;53.266;10.410;2023-05-09T00:20:36;101858.50;;;11.04;48.46
10510;BME280;5303;53.266;10.410;2023-05-09T00:23:03;101862.00;;;11.03;48.83
10510;BME280;5303;53.266;10.410;2023-05-09T00:25:29;101856.72;;;11.03;47.78
10510;BME280;5303;53.266;10.410;2023-05-09T00:27:54;101861.09;;;11.01;48.05
10510;BME280;5303;53.266;10.410;2023-05-09T00:30:19;101860.16;;;10.95;48.78
10510;BME280;5303;53.266;10.410;2023-05-09T00:32:45;101862.72;;;10.91;48.57
10510;BME280;5303;53.266;10.410;2023-05-09T00:35:10;101861.81;;;10.87;49.12
10510;BME280;5303;53.266;10.410;2023-05-09T00:37:35;101854.75;;;10.83;49.37
10510;BME280;5303;53.266;10.410;2023-05-09T00:40:02;101849.38;;;10.77;49.29
10510;BME280;5303;53.266;10.410;2023-05-09T00:42:27;101830.00;;;10.75;50.00
10510;BME280;5303;53.266;10.410;2023-05-09T00:44:52;101831.69;;;10.70;50.02
10510;BME280;5303;53.266;10.410;2023-05-09T00:47:19;101832.53;;;10.69;50.35
10510;BME280;5303;53.266;10.410;2023-05-09T00:49:44;101833.41;;;10.68;50.09
10510;BME280;5303;53.266;10.410;2023-05-09T00:52:09;101823.72;;;10.67;49.75
10510;BME280;5303;53.266;10.410;2023-05-09T00:54:35;101830.78;;;10.70;49.77
10510;BME280;5303;53.266;10.410;2023-05-09T00:57:00;101823.75;;;10.68;49.57
10510;BME280;5303;53.266;10.410;2023-05-09T00:59:26;101822.84;;;10.65;49.71
10510;BME280;5303;53.266;10.410;2023-05-09T01:01:52;101828.94;;;10.62;49.88
10510;BME280;5303;53.266;10.410;2023-05-09T01:04:17;101821.97;;;10.66;49.84
10510;BME280;5303;53.266;10.410;2023-05-09T01:13:02;101818.19;;;10.47;50.98
10510;BME280;5303;53.266;10.410;2023-05-09T01:15:53;101803.13;;;10.38;50.82
10510;BME280;5303;53.266;10.410;2023-05-09T01:18:29;101803.06;;;10.32;50.96
10510;BME280;5303;53.266;10.410;2023-05-09T01:21:12;101805.69;;;10.32;51.83
10510;BME280;5303;53.266;10.410;2023-05-09T01:26:46;101802.94;;;10.23;51.19
10510;BME280;5303;53.266;10.410;2023-05-09T01:32:02;101799.25;;;10.14;52.53
10510;BME280;5303;53.266;10.410;2023-05-09T01:34:29;101797.47;;;10.13;52.21
10510;BME280;5303;53.266;10.410;2023-05-09T01:36:58;101792.06;;;10.05;52.22
10510;BME280;5303;53.266;10.410;2023-05-09T01:39:27;101790.22;;;10.01;52.75
10510;BME280;5303;53.266;10.410;2023-05-09T01:41:55;101792.84;;;9.99;52.80
10510;BME280;5303;53.266;10.410;2023-05-09T01:44:22;101788.41;;;9.95;52.67
10510;BME280;5303;53.266;10.410;2023-05-09T01:46:51;101790.13;;;9.92;53.49
10510;BME280;5303;53.266;10.410;2023-05-09T01:49:19;101775.97;;;9.87;53.81
10510;BME280;5303;53.266;10.410;2023-05-09T01:51:45;101774.22;;;9.87;53.58
10510;BME280;5303;53.266;10.410;2023-05-09T01:54:11;101770.56;;;9.79;53.79
10510;BME280;5303;53.266;10.410;2023-05-09T01:56:38;101773.16;;;9.74;53.86
10510;BME280;5303;53.266;10.410;2023-05-09T01:59:05;101774.81;;;9.69;54.69
10510;BME280;5303;53.266;10.410;2023-05-09T02:01:32;101777.38;;;9.63;55.03
10510;BME280;5303;53.266;10.410;2023-05-09T02:03:58;101768.50;;;9.58;55.04
10510;BME280;5303;53.266;10.410;2023-05-09T02:06:24;101757.91;;;9.55;54.85
10510;BME280;5303;53.266;10.410;2023-05-09T02:08:53;101773.69;;;9.52;55.28
10510;BME280;5303;53.266;10.410;2023-05-09T02:11:19;101779.00;;;9.55;54.87
10510;BME280;5303;53.266;10.410;2023-05-09T02:13:45;101769.28;;;9.51;54.49
10510;BME280;5303;53.266;10.410;2023-05-09T02:16:10;101764.78;;;9.47;55.01
10510;BME280;5303;53.266;10.410;2023-05-09T02:18:36;101762.16;;;9.47;55.72
10510;BME280;5303;53.266;10.410;2023-05-09T02:21:01;101756.84;;;9.42;55.55
10510;BME280;5303;53.266;10.410;2023-05-09T02:23:27;101757.72;;;9.43;55.29
10510;BME280;5303;53.266;10.410;2023-05-09T02:25:53;101761.22;;;9.42;55.57
10510;BME280;5303;53.266;10.410;2023-05-09T02:28:21;101754.19;;;9.41;55.21
10510;BME280;5303;53.266;10.410;2023-05-09T02:30:48;101756.69;;;9.33;55.87
10510;BME280;5303;53.266;10.410;2023-05-09T02:33:15;101761.97;;;9.35;55.85
10510;BME280;5303;53.266;10.410;2023-05-09T02:35:42;101757.53;;;9.31;56.15
10510;BME280;5303;53.266;10.410;2023-05-09T02:38:07;101753.03;;;9.25;56.73
10510;BME280;5303;53.266;10.410;2023-05-09T02:40:33;101748.56;;;9.21;56.72
10510;BME280;5303;53.266;10.410;2023-05-09T02:42:58;101750.25;;;9.17;57.27
10510;BME280;5303;53.266;10.410;2023-05-09T02:45:24;101751.03;;;9.12;57.74
10510;BME280;5303;53.266;10.410;2023-05-09T02:47:49;101746.53;;;9.06;56.66
10510;BME280;5303;53.266;10.410;2023-05-09T02:50:14;101745.69;;;9.07;57.04
10510;BME280;5303;53.266;10.410;2023-05-09T02:52:40;101743.13;;;9.10;57.29
10510;BME280;5303;53.266;10.410;2023-05-09T02:55:05;101742.19;;;9.08;57.15
10510;BME280;5303;53.266;10.410;2023-05-09T02:57:34;101737.84;;;9.10;56.91
10510;BME280;5303;53.266;10.410;2023-05-09T03:00:00;101735.13;;;9.06;57.37
10510;BME280;5303;53.266;10.410;2023-05-09T03:02:25;101739.44;;;9.01;58.09
10510;BME280;5303;53.266;10.410;2023-05-09T03:04:50;101736.88;;;9.05;57.67
10510;BME280;5303;53.266;10.410;2023-05-09T03:07:16;101738.50;;;8.99;57.34
10510;BME280;5303;53.266;10.410;2023-05-09T03:09:41;101742.78;;;8.92;58.12
10510;BME280;5303;53.266;10.410;2023-05-09T03:12:06;101742.66;;;8.86;59.21
10510;BME280;5303;53.266;10.410;2023-05-09T03:14:32;101743.44;;;8.80;58.77
10510;BME280;5303;53.266;10.410;2023-05-09T03:16:57;101743.50;;;8.83;58.76
10510;BME280;5303;53.266;10.410;2023-05-09T03:19:22;101741.78;;;8.87;58.52
10510;BME280;5303;53.266;10.410;2023-05-09T03:21:47;101738.22;;;8.83;58.72
10510;BME280;5303;53.266;10.410;2023-05-09T03:24:13;101736.44;;;8.81;58.60
10510;BME280;5303;53.266;10.410;2023-05-09T03:26:38;101729.34;;;8.78;59.45
10510;BME280;5303;53.266;10.410;2023-05-09T03:29:03;101728.41;;;8.75;59.51
10510;BME280;5303;53.266;10.410;2023-05-09T03:31:29;101724.88;;;8.73;59.54
10510;BME280;5303;53.266;10.410;2023-05-09T03:33:54;101738.03;;;8.73;59.54
10510;BME280;5303;53.266;10.410;2023-05-09T03:36:20;101738.84;;;8.69;59.95
10510;BME280;5303;53.266;10.410;2023-05-09T03:38:46;101736.16;;;8.67;60.23
10510;BME280;5303;53.266;10.410;2023-05-09T03:41:12;101732.72;;;8.70;59.99
10510;BME280;5303;53.266;10.410;2023-05-09T03:43:38;101729.28;;;8.74;59.69
10510;BME280;5303;53.266;10.410;2023-05-09T03:46:03;101728.81;;;8.96;59.30
10510;BME280;5303;53.266;10.410;2023-05-09T03:48:28;101725.13;;;8.88;59.20
10510;BME280;5303;53.266;10.410;2023-05-09T03:50:53;101728.63;;;8.87;59.23
10510;BME280;5303;53.266;10.410;2023-05-09T03:53:19;101715.56;;;8.90;59.42
10510;BME280;5303;53.266;10.410;2023-05-09T03:55:44;101719.34;;;9.07;58.20
10510;BME280;5303;53.266;10.410;2023-05-09T03:58:10;101714.97;;;9.08;59.20
10510;BME280;5303;53.266;10.410;2023-05-09T04:00:35;101705.22;;;9.01;58.88
10510;BME280;5303;53.266;10.410;2023-05-09T04:03:01;101705.13;;;8.96;59.72
10510;BME280;5303;53.266;10.410;2023-05-09T04:05:26;101695.75;;;9.12;58.00
10510;BME280;5303;53.266;10.410;2023-05-09T04:07:51;101692.09;;;9.02;59.43
10510;BME280;5303;53.266;10.410;2023-05-09T04:10:17;101692.31;;;9.16;58.67
10510;BME280;5303;53.266;10.410;2023-05-09T04:12:42;101691.63;;;9.28;57.77
10510;BME280;5303;53.266;10.410;2023-05-09T04:15:08;101700.19;;;9.14;59.33
10510;BME280;5303;53.266;10.410;2023-05-09T04:17:33;101691.47;;;9.18;58.50
10510;BME280;5303;53.266;10.410;2023-05-09T04:19:58;101701.06;;;9.15;59.10
10510;BME280;5303;53.266;10.410;2023-05-09T04:22:24;101698.78;;;9.36;57.92
10510;BME280;5303;53.266;10.410;2023-05-09T04:24:49;101694.34;;;9.32;58.91
10510;BME280;5303;53.266;10.410;2023-05-09T04:27:15;101696.28;;;9.44;58.40
10510;BME280;5303;53.266;10.410;2023-05-09T04:29:40;101679.88;;;9.62;58.06
10510;BME280;5303;53.266;10.410;2023-05-09T04:32:06;101686.22;;;9.76;57.50
10510;BME280;5303;53.266;10.410;2023-05-09T04:34:32;101683.53;;;9.71;57.32
10510;BME280;5303;53.266;10.410;2023-05-09T04:36:57;101680.84;;;9.68;57.79
10510;BME280;5303;53.266;10.410;2023-05-09T04:39:23;101679.00;;;9.61;57.99
10510;BME280;5303;53.266;10.410;2023-05-09T04:41:48;101678.03;;;9.56;57.66
10510;BME280;5303;53.266;10.410;2023-05-09T04:44:14;101671.88;;;9.56;57.92
10510;BME280;5303;53.266;10.410;2023-05-09T04:46:39;101678.13;;;9.61;58.44
10510;BME280;5303;53.266;10.410;2023-05-09T04:49:05;101676.44;;;9.69;58.03
10510;BME280;5303;53.266;10.410;2023-05-09T04:51:30;101674.69;;;9.69;57.87
10510;BME280;5303;53.266;10.410;2023-05-09T04:53:55;101679.22;;;9.79;58.16
10510;BME280;5303;53.266;10.410;2023-05-09T04:56:21;101679.22;;;9.79;57.83
10510;BME280;5303;53.266;10.410;2023-05-09T04:58:46;101682.06;;;9.92;58.24
10510;BME280;5303;53.266;10.410;2023-05-09T05:01:12;101690.28;;;10.16;57.43
10510;BME280;5303;53.266;10.410;2023-05-09T05:03:37;101690.06;;;10.71;56.24
10510;BME280;5303;53.266;10.410;2023-05-09T05:06:02;101668.16;;;11.93;52.97
10510;BME280;5303;53.266;10.410;2023-05-09T05:08:28;101670.16;;;12.61;49.39
10510;BME280;5303;53.266;10.410;2023-05-09T05:10:53;101672.69;;;12.17;49.71
10510;BME280;5303;53.266;10.410;2023-05-09T05:13:18;101669.03;;;11.95;50.70
10510;BME280;5303;53.266;10.410;2023-05-09T05:15:45;101666.91;;;11.38;52.59
10510;BME280;5303;53.266;10.410;2023-05-09T05:18:10;101673.81;;;11.23;52.89
10510;BME280;5303;53.266;10.410;2023-05-09T05:20:36;101667.63;;;11.17;53.17
10510;BME280;5303;53.266;10.410;2023-05-09T05:23:03;101656.09;;;11.07;52.95
10510;BME280;5303;53.266;10.410;2023-05-09T05:25:29;101659.53;;;10.95;53.53
10510;BME280;5303;53.266;10.410;2023-05-09T05:27:55;101664.59;;;10.74;54.81
10510;BME280;5303;53.266;10.410;2023-05-09T05:30:20;101660.22;;;10.76;55.44
10510;BME280;5303;53.266;10.410;2023-05-09T05:32:45;101654.00;;;10.73;55.45
10510;BME280;5303;53.266;10.410;2023-05-09T05:35:11;101646.09;;;10.73;54.29
10510;BME280;5303;53.266;10.410;2023-05-09T05:37:38;101647.91;;;10.75;55.02
10510;BME280;5303;53.266;10.410;2023-05-09T05:40:04;101641.84;;;10.88;55.05
10510;BME280;5303;53.266;10.410;2023-05-09T05:42:30;101634.06;;;11.04;54.43
10510;BME280;5303;53.266;10.410;2023-05-09T05:44:55;101626.09;;;11.01;54.15
10510;BME280;5303;53.266;10.410;2023-05-09T05:47:21;101625.22;;;11.02;54.68
10510;BME280;5303;53.266;10.410;2023-05-09T05:49:47;101609.47;;;11.11;54.69
10510;BME280;5303;53.266;10.410;2023-05-09T05:52:12;101618.38;;;11.25;53.95
10510;BME280;5303;53.266;10.410;2023-05-09T05:54:37;101611.31;;;11.22;54.66
10510;BME280;5303;53.266;10.410;2023-05-09T05:57:02;101614.91;;;11.32;54.90
10510;BME280;5303;53.266;10.410;2023-05-09T05:59:28;101612.22;;;11.26;54.33
10510;BME280;5303;53.266;10.410;2023-05-09T06:01:53;101612.25;;;11.34;54.85
10510;BME280;5303;53.266;10.410;2023-05-09T06:04:18;101617.59;;;11.38;54.66
10510;BME280;5303;53.266;10.410;2023-05-09T06:06:44;101615.91;;;11.52;54.14
10510;BME280;5303;53.266;10.410;2023-05-09T06:09:09;101618.59;;;11.62;54.06
10510;BME280;5303;53.266;10.410;2023-05-09T06:11:34;101623.06;;;11.73;54.11
10510;BME280;5303;53.266;10.410;2023-05-09T06:14:00;101617.91;;;11.87;54.06
10510;BME280;5303;53.266;10.410;2023-05-09T06:16:26;101613.50;;;11.86;53.54
10510;BME280;5303;53.266;10.410;2023-05-09T06:18:51;101608.22;;;11.86;53.28
10510;BME280;5303;53.266;10.410;2023-05-09T06:21:17;101605.59;;;11.97;53.25
10510;BME280;5303;53.266;10.410;2023-05-09T06:23:42;101602.03;;;11.93;53.41
10510;BME280;5303;53.266;10.410;2023-05-09T06:26:07;101596.81;;;12.11;52.27
10510;BME280;5303;53.266;10.410;2023-05-09T06:28:33;101588.03;;;12.19;51.73
10510;BME280;5303;53.266;10.410;2023-05-09T06:30:58;101597.75;;;12.21;52.93
10510;BME280;5303;53.266;10.410;2023-05-09T06:33:24;101588.03;;;12.19;53.08
10510;BME280;5303;53.266;10.410;2023-05-09T06:35:50;101587.16;;;12.21;53.32
10510;BME280;5303;53.266;10.410;2023-05-09T06:38:15;101584.50;;;12.21;52.66
10510;BME280;5303;53.266;10.410;2023-05-09T06:40:40;101580.13;;;12.46;52.07
10510;BME280;5303;53.266;10.410;2023-05-09T06:43:06;101575.75;;;12.42;52.11
10510;BME280;5303;53.266;10.410;2023-05-09T06:45:31;101577.50;;;12.52;52.36
10510;BME280;5303;53.266;10.410;2023-05-09T06:47:57;101577.53;;;12.81;50.79
10510;BME280;5303;53.266;10.410;2023-05-09T06:50:22;101581.97;;;12.88;50.80
10510;BME280;5303;53.266;10.410;2023-05-09T06:52:47;101568.69;;;12.93;51.20
10510;BME280;5303;53.266;10.410;2023-05-09T06:55:13;101581.03;;;12.97;50.56
10510;BME280;5303;53.266;10.410;2023-05-09T06:57:38;101579.28;;;13.02;51.10
10510;BME280;5303;53.266;10.410;2023-05-09T07:00:05;101581.94;;;13.08;51.09
10510;BME280;5303;53.266;10.410;2023-05-09T07:02:30;101588.13;;;13.29;50.11
10510;BME280;5303;53.266;10.410;2023-05-09T07:04:56;101578.38;;;13.35;49.71
10510;BME280;5303;53.266;10.410;2023-05-09T07:07:21;101571.25;;;13.55;49.83
10510;BME280;5303;53.266;10.410;2023-05-09T07:09:46;101574.78;;;13.62;48.78
10510;BME280;5303;53.266;10.410;2023-05-09T07:12:12;101565.03;;;13.66;49.59
10510;BME280;5303;53.266;10.410;2023-05-09T07:14:37;101561.50;;;13.65;49.66
10510;BME280;5303;53.266;10.410;2023-05-09T07:17:02;101564.06;;;13.87;48.78
10510;BME280;5303;53.266;10.410;2023-05-09T07:19:27;101551.75;;;13.73;49.84
10510;BME280;5303;53.266;10.410;2023-05-09T07:21:53;101543.81;;;13.67;49.83
10510;BME280;5303;53.266;10.410;2023-05-09T07:24:18;101543.78;;;13.79;49.29
10510;BME280;5303;53.266;10.410;2023-05-09T07:26:43;101545.47;;;13.96;48.92
10510;BME280;5303;53.266;10.410;2023-05-09T07:29:08;101532.16;;;13.99;49.21
10510;BME280;5303;53.266;10.410;2023-05-09T07:31:34;101543.69;;;14.01;49.08
10510;BME280;5303;53.266;10.410;2023-05-09T07:33:59;101531.25;;;14.06;48.64
10510;BME280;5303;53.266;10.410;2023-05-09T07:36:24;101532.09;;;14.12;49.95
10510;BME280;5303;53.266;10.410;2023-05-09T07:38:50;101533.78;;;14.30;48.41
10510;BME280;5303;53.266;10.410;2023-05-09T07:41:17;101525.72;;;14.39;48.14
10510;BME280;5303;53.266;10.410;2023-05-09T07:43:42;101525.75;;;14.36;48.17
10510;BME280;5303;53.266;10.410;2023-05-09T07:46:07;101523.72;;;14.70;46.70
10510;BME280;5303;53.266;10.410;2023-05-09T07:48:33;101520.06;;;14.85;46.88
10510;BME280;5303;53.266;10.410;2023-05-09T07:50:58;101517.41;;;14.85;46.43
10510;BME280;5303;53.266;10.410;2023-05-09T07:53:23;101521.78;;;14.92;46.32
10510;BME280;5303;53.266;10.410;2023-05-09T07:55:49;101509.34;;;14.94;45.89
10510;BME280;5303;53.266;10.410;2023-05-09T07:58:15;101504.84;;;15.01;45.98
10510;BME280;5303;53.266;10.410;2023-05-09T08:00:41;101497.53;;;15.23;44.47
10510;BME280;5303;53.266;10.410;2023-05-09T08:03:06;101483.44;;;15.16;45.86
10510;BME280;5303;53.266;10.410;2023-05-09T08:05:31;101482.38;;;15.33;45.20
10510;BME280;5303;53.266;10.410;2023-05-09T08:07:57;101483.06;;;15.47;45.73
10510;BME280;5303;53.266;10.410;2023-05-09T08:10:22;101482.19;;;15.46;45.24
10510;BME280;5303;53.266;10.410;2023-05-09T08:12:48;101479.38;;;15.60;44.64
10510;BME280;5303;53.266;10.410;2023-05-09T08:15:13;101476.44;;;15.80;45.25
10510;BME280;5303;53.266;10.410;2023-05-09T08:17:38;101477.28;;;15.83;44.15
10510;BME280;5303;53.266;10.410;2023-05-09T08:20:04;101465.03;;;15.72;43.53
10510;BME280;5303;53.266;10.410;2023-05-09T08:22:30;101463.19;;;15.78;44.29
10510;BME280;5303;53.266;10.410;2023-05-09T08:24:55;101465.34;;;16.10;42.92
10510;BME280;5303;53.266;10.410;2023-05-09T08:27:20;101459.28;;;16.01;43.26
10510;BME280;5303;53.266;10.410;2023-05-09T08:29:45;101457.94;;;16.31;42.95
10510;BME280;5303;53.266;10.410;2023-05-09T08:32:11;101451.66;;;16.33;42.14
10510;BME280;5303;53.266;10.410;2023-05-09T08:34:36;101454.63;;;16.17;43.06
10510;BME280;5303;53.266;10.410;2023-05-09T08:37:02;101447.34;;;16.28;42.68
10510;BME280;5303;53.266;10.410;2023-05-09T08:39:28;101434.97;;;16.24;41.77
10510;BME280;5303;53.266;10.410;2023-05-09T08:41:57;101445.63;;;16.25;42.50
10510;BME280;5303;53.266;10.410;2023-05-09T08:44:22;101439.38;;;16.26;41.17
10510;BME280;5303;53.266;10.410;2023-05-09T08:46:51;101435.69;;;16.35;41.39
10510;BME280;5303;53.266;10.410;2023-05-09T08:49:16;101427.84;;;16.26;42.14
10510;BME280;5303;53.266;10.410;2023-05-09T08:51:43;101433.72;;;16.46;41.45
10510;BME280;5303;53.266;10.410;2023-05-09T08:54:10;101434.66;;;16.42;42.08
10510;BME280;5303;53.266;10.410;2023-05-09T08:56:35;101423.59;;;16.66;41.15
10510;BME280;5303;53.266;10.410;2023-05-09T08:59:00;101421.81;;;16.68;40.88
10510;BME280;5303;53.266;10.410;2023-05-09T09:01:26;101427.28;;;17.06;38.83
10510;BME280;5303;53.266;10.410;2023-05-09T09:03:52;101405.63;;;17.22;39.45
10510;BME280;5303;53.266;10.410;2023-05-09T09:06:18;101412.72;;;17.23;39.83
10510;BME280;5303;53.266;10.410;2023-05-09T09:08:44;101406.41;;;17.27;40.23
10510;BME280;5303;53.266;10.410;2023-05-09T09:11:12;101407.63;;;17.11;41.11
10510;BME280;5303;53.266;10.410;2023-05-09T09:13:39;101397.34;;;17.35;39.80
10510;BME280;5303;53.266;10.410;2023-05-09T09:16:07;101404.25;;;17.45;41.27
10510;BME280;5303;53.266;10.410;2023-05-09T09:18:34;101399.53;;;17.56;40.64
10510;BME280;5303;53.266;10.410;2023-05-09T09:21:05;101400.16;;;17.69;39.45
10510;BME280;5303;53.266;10.410;2023-05-09T09:23:31;101392.38;;;17.60;39.30
10510;BME280;5303;53.266;10.410;2023-05-09T09:26:01;101394.38;;;17.50;39.51
10510;BME280;5303;53.266;10.410;2023-05-09T09:28:29;101401.28;;;17.57;39.65
10510;BME280;5303;53.266;10.410;2023-05-09T09:30:54;101398.72;;;17.54;38.44
10510;BME280;5303;53.266;10.410;2023-05-09T09:33:20;101390.78;;;17.51;38.87
10510;BME280;5303;53.266;10.410;2023-05-09T09:35:47;101390.47;;;17.65;38.41
10510;BME280;5303;53.266;10.410;2023-05-09T09:38:13;101384.53;;;17.52;38.57
10510;BME280;5303;53.266;10.410;2023-05-09T09:40:39;101378.78;;;17.72;37.81
10510;BME280;5303;53.266;10.410;2023-05-09T09:43:05;101372.00;;;17.94;37.43
10510;BME280;5303;53.266;10.410;2023-05-09T09:45:31;101366.84;;;17.87;38.11
10510;BME280;5303;53.266;10.410;2023-05-09T09:47:56;101369.16;;;18.02;36.20
10510;BME280;5303;53.266;10.410;2023-05-09T09:50:21;101367.53;;;17.95;37.67
10510;BME280;5303;53.266;10.410;2023-05-09T09:52:53;101376.47;;;18.28;36.17
10510;BME280;5303;53.266;10.410;2023-05-09T09:55:22;101370.72;;;18.10;37.69
10510;BME280;5303;53.266;10.410;2023-05-09T09:57:49;101364.78;;;17.99;38.64
10510;BME280;5303;53.266;10.410;2023-05-09T10:00:17;101355.88;;;17.99;38.13
10510;BME280;5303;53.266;10.410;2023-05-09T10:02:56;101346.03;;;18.01;37.74
10510;BME280;5303;53.266;10.410;2023-05-09T10:05:29;101359.16;;;18.10;37.27
10510;BME280;5303;53.266;10.410;2023-05-09T10:08:01;101360.59;;;18.23;37.54
10510;BME280;5303;53.266;10.410;2023-05-09T10:10:29;101349.72;;;18.31;37.45
10510;BME280;5303;53.266;10.410;2023-05-09T10:12:57;101347.97;;;18.30;38.18
10510;BME280;5303;53.266;10.410;2023-05-09T10:15:24;101355.34;;;18.53;36.55
10510;BME280;5303;53.266;10.410;2023-05-09T10:17:53;101346.19;;;18.29;36.81
10510;BME280;5303;53.266;10.410;2023-05-09T10:20:20;101335.47;;;18.30;37.00
10510;BME280;5303;53.266;10.410;2023-05-09T10:22:45;101341.41;;;18.41;37.53
10510;BME280;5303;53.266;10.410;2023-05-09T10:25:21;101336.47;;;18.26;38.30
10510;BME280;5303;53.266;10.410;2023-05-09T10:27:47;101339.94;;;18.30;37.60
10510;BME280;5303;53.266;10.410;2023-05-09T10:30:27;101326.59;;;18.28;38.12
10510;BME280;5303;53.266;10.410;2023-05-09T10:33:04;101318.59;;;18.28;38.46
10510;BME280;5303;53.266;10.410;2023-05-09T10:35:36;101313.34;;;18.25;38.57
10510;BME280;5303;53.266;10.410;2023-05-09T10:38:01;101308.03;;;18.24;38.17
10510;BME280;5303;53.266;10.410;2023-05-09T10:40:27;101300.91;;;18.24;37.92
10510;BME280;5303;53.266;10.410;2023-05-09T10:42:53;101287.66;;;18.21;38.75
10510;BME280;5303;53.266;10.410;2023-05-09T10:45:19;101288.03;;;18.40;37.24
10510;BME280;5303;53.266;10.410;2023-05-09T10:47:48;101285.06;;;18.49;38.50
10510;BME280;5303;53.266;10.410;2023-05-09T10:50:14;101286.13;;;18.43;38.37
10510;BME280;5303;53.266;10.410;2023-05-09T10:55:52;101279.56;;;18.86;36.53
10510;BME280;5303;53.266;10.410;2023-05-09T10:58:30;101279.56;;;18.86;36.63
10510;BME280;5303;53.266;10.410;2023-05-09T11:01:01;101272.03;;;19.01;35.98
10510;BME280;5303;53.266;10.410;2023-05-09T11:03:28;101267.41;;;18.76;36.73
10510;BME280;5303;53.266;10.410;2023-05-09T11:06:46;101254.56;;;19.17;35.42
10510;BME280;5303;53.266;10.410;2023-05-09T11:12:18;101241.94;;;19.22;35.33
10510;BME280;5303;53.266;10.410;2023-05-09T11:14:45;101242.88;;;19.47;34.64
10510;BME280;5303;53.266;10.410;2023-05-09T11:22:19;101227.53;;;19.26;34.93
10510;BME280;5303;53.266;10.410;2023-05-09T11:24:50;101225.13;;;19.45;33.94
10510;BME280;5303;53.266;10.410;2023-05-09T11:27:19;101219.91;;;19.40;34.55
10510;BME280;5303;53.266;10.410;2023-05-09T11:29:48;101218.09;;;19.42;35.10
10510;BME280;5303;53.266;10.410;2023-05-09T11:32:15;101207.75;;;19.32;35.97
10510;BME280;5303;53.266;10.410;2023-05-09T11:34:42;101204.00;;;19.64;34.20
10510;BME280;5303;53.266;10.410;2023-05-09T11:37:10;101200.59;;;19.59;35.39
10510;BME280;5303;53.266;10.410;2023-05-09T11:39:54;101206.53;;;19.40;36.00
10510;BME280;5303;53.266;10.410;2023-05-09T11:42:22;101204.72;;;19.42;35.36
10510;BME280;5303;53.266;10.410;2023-05-09T11:44:47;101199.66;;;19.86;33.64
10510;BME280;5303;53.266;10.410;2023-05-09T11:47:13;101201.19;;;19.93;32.94
10510;BME280;5303;53.266;10.410;2023-05-09T11:49:42;101194.94;;;19.68;34.69
10510;BME280;5303;53.266;10.410;2023-05-09T11:52:07;101175.69;;;19.83;33.50
10510;BME280;5303;53.266;10.410;2023-05-09T11:54:32;101168.66;;;19.79;34.70
10510;BME280;5303;53.266;10.410;2023-05-09T11:57:00;101168.38;;;20.11;33.47
10510;BME280;5303;53.266;10.410;2023-05-09T11:59:25;101164.06;;;20.07;33.57
10510;BME280;5303;53.266;10.410;2023-05-09T12:01:52;101155.69;;;20.17;33.31
10510;BME280;5303;53.266;10.410;2023-05-09T12:04:18;101162.53;;;20.00;34.73
10510;BME280;5303;53.266;10.410;2023-05-09T12:06:46;101154.50;;;20.00;35.47
10510;BME280;5303;53.266;10.410;2023-05-09T12:09:12;101154.97;;;20.11;34.10
10510;BME280;5303;53.266;10.410;2023-05-09T12:11:46;101142.41;;;20.13;34.13
10510;BME280;5303;53.266;10.410;2023-05-09T12:14:25;101131.59;;;20.17;33.03
10510;BME280;5303;53.266;10.410;2023-05-09T12:16:51;101133.06;;;20.00;34.54
10510;BME280;5303;53.266;10.410;2023-05-09T12:19:17;101137.50;;;20.01;34.06
10510;BME280;5303;53.266;10.410;2023-05-09T12:21:43;101115.13;;;20.02;34.36
10510;BME280;5303;53.266;10.410;2023-05-09T12:24:08;101123.69;;;20.12;34.65
10510;BME280;5303;53.266;10.410;2023-05-09T12:26:33;101116.03;;;20.26;33.18
10510;BME280;5303;53.266;10.410;2023-05-09T12:28:59;101107.19;;;20.24;33.38
10510;BME280;5303;53.266;10.410;2023-05-09T12:31:25;101120.06;;;20.14;33.58
10510;BME280;5303;53.266;10.410;2023-05-09T12:33:50;101112.41;;;20.27;31.68
10510;BME280;5303;53.266;10.410;2023-05-09T12:36:15;101120.22;;;20.10;33.91
10510;BME280;5303;53.266;10.410;2023-05-09T12:38:51;101109.16;;;20.19;33.60
10510;BME280;5303;53.266;10.410;2023-05-09T12:41:16;101109.25;;;20.39;33.02
10510;BME280;5303;53.266;10.410;2023-05-09T12:43:47;101113.88;;;20.36;32.92
10510;BME280;5303;53.266;10.410;2023-05-09T12:46:16;101118.31;;;20.37;32.38
10510;BME280;5303;53.266;10.410;2023-05-09T12:48:42;101115.22;;;20.24;33.53
10510;BME280;5303;53.266;10.410;2023-05-09T12:51:08;101117.72;;;20.52;33.01
10510;BME280;5303;53.266;10.410;2023-05-09T12:53:37;101110.19;;;20.38;33.15
10510;BME280;5303;53.266;10.410;2023-05-09T12:56:05;101107.84;;;20.54;32.56
10510;BME280;5303;53.266;10.410;2023-05-09T12:58:35;101109.59;;;20.55;32.68
10510;BME280;5303;53.266;10.410;2023-05-09T13:01:02;101109.66;;;20.76;32.11
10510;BME280;5303;53.266;10.410;2023-05-09T13:03:29;101107.34;;;20.66;32.65
10510;BME280;5303;53.266;10.410;2023-05-09T13:06:00;101100.97;;;20.91;31.28
10510;BME280;5303;53.266;10.410;2023-05-09T13:08:26;101102.09;;;20.63;32.27
10510;BME280;5303;53.266;10.410;2023-05-09T13:10:52;101098.16;;;20.72;32.37
10510;BME280;5303;53.266;10.410;2023-05-09T13:13:18;101103.84;;;20.64;32.49